Time;durP1;ratioP1;P1;durP2;ratioP2;P2;SDS_P1;SDS_P2;PMS_P1;PMS_P2;Temp;Humidity;BMP_temperature;BMP_pressure;BME280_temperature;BME280_humidity;BME280_pressure;Samples;Min_cycle;Max_cycle;Signal;HPM_P1;HPM_P2
2023/12/01 00:00:12;;;;;;;7.60;6.17;;;;;;;-0.87;100.00;100516.69;6179940;28;22547;-72
2023/12/01 00:03:33;;;;;;;8.57;6.43;;;;;;;-0.77;100.00;100503.84;6175365;28;20758;-73
2023/12/01 00:06:54;;;;;;;6.80;6.07;;;;;;;-0.67;100.00;100510.44;6177786;28;20234;-73
2023/12/01 00:10:15;;;;;;;7.07;6.33;;;;;;;-0.63;100.00;100512.00;6174850;28;20245;-73
2023/12/01 00:13:37;;;;;;;8.73;6.87;;;;;;;-0.66;100.00;100511.28;6177494;28;20234;-73
2023/12/01 00:16:58;;;;;;;6.40;5.70;;;;;;;-0.87;100.00;100513.16;6178925;28;20237;-74
2023/12/01 00:20:20;;;;;;;7.57;6.67;;;;;;;-1.05;100.00;100512.28;6166239;28;20318;-73
2023/12/01 00:23:40;;;;;;;5.97;5.37;;;;;;;-1.23;100.00;100530.78;6179879;28;20294;-73
2023/12/01 00:27:02;;;;;;;6.53;5.93;;;;;;;-1.24;100.00;100523.78;6178589;28;20226;-72
2023/12/01 00:30:28;;;;;;;6.10;5.43;;;;;;;-1.25;100.00;100525.53;6139192;28;20246;-74
2023/12/01 00:33:49;;;;;;;6.83;5.90;;;;;;;-1.15;100.00;100526.81;6173387;28;20237;-72
2023/12/01 00:37:10;;;;;;;7.03;6.33;;;;;;;-1.02;100.00;100529.75;6161135;28;20777;-72
2023/12/01 00:40:31;;;;;;;8.47;6.67;;;;;;;-0.96;100.00;100532.16;6175384;28;20320;-74
2023/12/01 00:43:52;;;;;;;7.73;6.60;;;;;;;-0.90;100.00;100537.97;6161051;28;20261;-73
2023/12/01 00:47:14;;;;;;;6.67;5.73;;;;;;;-0.93;100.00;100535.50;6177141;28;20313;-72
2023/12/01 00:50:35;;;;;;;9.17;7.90;;;;;;;-0.89;100.00;100537.06;6178045;28;20266;-73
2023/12/01 00:53:56;;;;;;;7.93;6.70;;;;;;;-1.04;100.00;100542.19;6168467;28;20234;-73
2023/12/01 00:57:17;;;;;;;7.50;6.67;;;;;;;-1.21;100.00;100539.50;6176553;28;20690;-72
2023/12/01 01:00:40;;;;;;;12.33;8.13;;;;;;;-1.23;100.00;100549.28;6173595;28;20629;-72
2023/12/01 01:04:02;;;;;;;9.63;6.27;;;;;;;-1.28;100.00;100541.56;6178432;28;20233;-72
2023/12/01 01:07:23;;;;;;;7.87;7.03;;;;;;;-1.34;100.00;100549.78;6176058;28;20616;-72
2023/12/01 01:10:43;;;;;;;8.93;7.43;;;;;;;-1.42;100.00;100546.63;6171952;28;20244;-73
2023/12/01 01:14:04;;;;;;;8.87;7.30;;;;;;;-1.35;100.00;100544.53;6175483;28;20228;-73
2023/12/01 01:17:25;;;;;;;8.10;7.13;;;;;;;-1.24;100.00;100547.56;6165015;28;21311;-73
2023/12/01 01:20:48;;;;;;;10.10;9.10;;;;;;;-1.23;100.00;100549.28;6164439;28;20238;-72
2023/12/01 01:24:09;;;;;;;7.43;6.03;;;;;;;-1.31;100.00;100552.28;6177607;28;20237;-73
2023/12/01 01:27:36;;;;;;;10.37;8.43;;;;;;;-1.34;100.00;100546.28;6176001;28;20237;-72
2023/12/01 01:30:57;;;;;;;9.53;6.97;;;;;;;-1.41;100.00;100558.03;6172378;28;20692;-72
2023/12/01 01:34:18;;;;;;;8.27;7.43;;;;;;;-1.53;100.00;100555.94;6176601;28;21271;-73
2023/12/01 01:37:41;;;;;;;7.47;6.67;;;;;;;-1.55;100.00;100549.88;6176221;28;20242;-72
2023/12/01 01:41:02;;;;;;;12.10;7.43;;;;;;;-1.59;100.00;100561.50;6176687;28;20225;-73
2023/12/01 01:44:23;;;;;;;10.63;8.73;;;;;;;-1.65;100.00;100552.09;6163662;28;20238;-72
2023/12/01 01:47:44;;;;;;;9.70;7.97;;;;;;;-1.59;100.00;100551.81;6175366;28;20534;-72
2023/12/01 01:51:06;;;;;;;14.13;8.73;;;;;;;-1.71;100.00;100547.06;6174276;28;20246;-72
2023/12/01 01:54:29;;;;;;;9.43;8.43;;;;;;;-1.80;100.00;100548.34;6175904;28;20611;-72
2023/12/01 01:57:55;;;;;;;9.93;8.50;;;;;;;-1.76;100.00;100547.28;6174842;28;20578;-73
2023/12/01 02:01:16;;;;;;;8.57;6.80;;;;;;;-1.92;100.00;100556.75;6160724;28;20487;-72
2023/12/01 02:04:37;;;;;;;9.07;7.40;;;;;;;-2.05;100.00;100565.28;6176097;28;20226;-72
2023/12/01 02:08:22;;;;;;;7.10;6.23;;;;;;;-2.20;100.00;100566.78;6176656;28;20230;-72
2023/12/01 02:11:44;;;;;;;10.97;7.30;;;;;;;-2.27;100.00;100562.69;6174254;28;20237;-73
2023/12/01 02:15:10;;;;;;;10.37;8.23;;;;;;;-2.24;100.00;100565.22;6158793;28;20616;-72
2023/12/01 02:18:33;;;;;;;11.30;7.63;;;;;;;-2.17;100.00;100569.28;6157419;28;20238;-72
2023/12/01 02:21:55;;;;;;;9.13;7.80;;;;;;;-2.08;100.00;100571.56;6161141;28;20229;-71
2023/12/01 02:25:16;;;;;;;10.00;8.17;;;;;;;-2.03;100.00;100568.72;6160888;28;20238;-72
2023/12/01 02:28:39;;;;;;;8.63;7.23;;;;;;;-1.99;100.00;100571.16;6170186;28;20230;-72
2023/12/01 02:31:59;;;;;;;8.30;7.47;;;;;;;-1.96;100.00;100568.38;6149902;28;20237;-71
2023/12/01 02:35:20;;;;;;;9.97;8.07;;;;;;;-2.03;100.00;100569.59;6169457;28;20229;-71
2023/12/01 02:38:42;;;;;;;8.93;7.17;;;;;;;-2.10;100.00;100564.63;6165369;28;20241;-72
2023/12/01 02:42:03;;;;;;;9.57;7.80;;;;;;;-2.31;100.00;100570.78;6166314;28;20230;-72
2023/12/01 02:45:24;;;;;;;11.80;8.40;;;;;;;-2.44;100.00;100581.84;6165543;28;20536;-72
2023/12/01 02:48:45;;;;;;;10.43;8.60;;;;;;;-2.36;100.00;100580.69;6155163;28;20225;-71
2023/12/01 02:52:06;;;;;;;9.83;8.83;;;;;;;-2.40;100.00;100572.06;6139598;28;20253;-72
2023/12/01 02:55:29;;;;;;;9.73;8.73;;;;;;;-2.20;100.00;100574.72;6165760;28;20313;-71
2023/12/01 02:58:50;;;;;;;8.77;7.87;;;;;;;-1.99;100.00;100571.16;6152981;28;20230;-72
2023/12/01 03:02:10;;;;;;;10.63;8.27;;;;;;;-1.91;100.00;100570.84;6155179;28;20316;-71
2023/12/01 03:05:31;;;;;;;9.20;8.07;;;;;;;-1.90;100.00;100573.41;6169211;28;20550;-71
2023/12/01 03:08:53;;;;;;;9.50;8.27;;;;;;;-1.96;100.00;100578.94;6165810;28;20618;-72
2023/12/01 03:12:15;;;;;;;9.60;8.53;;;;;;;-1.78;100.00;100588.75;6173013;28;20230;-71
2023/12/01 03:15:36;;;;;;;10.20;8.27;;;;;;;-1.62;100.00;100581.84;6170932;28;20241;-71
2023/12/01 03:18:57;;;;;;;9.77;7.77;;;;;;;-1.55;100.00;100571.88;6175045;28;20257;-71
2023/12/01 03:22:18;;;;;;;8.10;6.80;;;;;;;-1.46;100.00;100571.44;6171973;28;20625;-72
2023/12/01 03:25:39;;;;;;;14.47;9.87;;;;;;;-1.37;100.00;100583.41;6173173;28;20241;-70
2023/12/01 03:29:01;;;;;;;10.10;8.43;;;;;;;-1.46;100.00;100584.66;6164241;28;20225;-72
2023/12/01 03:32:22;;;;;;;11.77;8.70;;;;;;;-1.46;100.00;100589.13;6175237;28;20253;-72
2023/12/01 03:35:46;;;;;;;9.43;7.70;;;;;;;-1.51;100.00;100593.75;6174535;28;20505;-72
2023/12/01 03:39:08;;;;;;;11.40;9.10;;;;;;;-1.48;100.00;100596.25;6175053;28;20241;-72
2023/12/01 03:42:29;;;;;;;11.50;9.93;;;;;;;-1.48;100.00;100585.69;6167444;28;20217;-71
2023/12/01 03:45:51;;;;;;;10.93;8.87;;;;;;;-1.55;100.00;100581.59;6173835;28;20229;-73
2023/12/01 03:49:12;;;;;;;11.47;9.83;;;;;;;-1.36;100.00;100571.91;6172732;28;20233;-72
2023/12/01 03:52:33;;;;;;;10.93;9.40;;;;;;;-1.34;100.00;100575.34;6169385;28;20226;-71
2023/12/01 03:55:54;;;;;;;11.10;9.40;;;;;;;-1.29;100.00;100576.84;6175589;28;20237;-73
2023/12/01 03:59:15;;;;;;;11.40;9.40;;;;;;;-1.20;100.00;100586.16;6136515;28;20233;-72
2023/12/01 04:02:41;;;;;;;12.37;9.73;;;;;;;-1.13;100.00;100580.53;6171686;28;20226;-72
2023/12/01 04:06:02;;;;;;;11.27;10.07;;;;;;;-1.06;100.00;100576.66;6172772;28;20242;-73
2023/12/01 04:09:22;;;;;;;10.23;8.77;;;;;;;-1.10;100.00;100590.09;6174612;28;20229;-72
2023/12/01 04:12:44;;;;;;;12.87;9.30;;;;;;;-1.16;100.00;100603.59;6172268;28;20500;-72
2023/12/01 04:16:08;;;;;;;11.27;9.80;;;;;;;-1.10;100.00;100600.66;6163752;28;20230;-73
2023/12/01 04:19:30;;;;;;;12.43;9.20;;;;;;;-1.15;100.00;100589.47;6161079;28;20239;-72
2023/12/01 04:22:52;;;;;;;10.90;9.80;;;;;;;-0.93;100.00;100593.69;6176850;28;20234;-72
2023/12/01 04:26:14;;;;;;;11.33;10.10;;;;;;;-0.85;100.00;100588.03;6176561;28;20333;-72
2023/12/01 04:29:35;;;;;;;11.33;9.40;;;;;;;-0.81;100.00;100593.09;6179606;28;20273;-73
2023/12/01 04:32:56;;;;;;;11.03;9.17;;;;;;;-0.74;100.00;100590.16;6175621;28;20309;-72
2023/12/01 04:36:19;;;;;;;11.40;9.87;;;;;;;-0.66;100.00;100591.53;6179265;28;20569;-73
2023/12/01 04:39:40;;;;;;;13.23;10.03;;;;;;;-0.83;100.00;100588.81;6178224;28;20596;-72
2023/12/01 04:43:01;;;;;;;9.90;8.87;;;;;;;-0.90;100.00;100590.03;6175540;28;21294;-72
2023/12/01 04:46:21;;;;;;;11.80;10.60;;;;;;;-0.96;100.00;100595.63;6176679;28;20238;-72
2023/12/01 04:49:42;;;;;;;11.30;8.27;;;;;;;-0.95;100.00;100600.84;6178476;28;20230;-73
2023/12/01 04:53:04;;;;;;;10.33;8.30;;;;;;;-0.93;100.00;100587.53;6177933;28;20664;-72
2023/12/01 04:56:25;;;;;;;11.53;9.17;;;;;;;-1.06;100.00;100595.16;6177910;28;20242;-72
2023/12/01 04:59:46;;;;;;;9.77;8.47;;;;;;;-1.15;100.00;100598.22;6150374;28;20233;-72
2023/12/01 05:03:08;;;;;;;10.17;8.93;;;;;;;-1.14;100.00;100599.94;6177918;28;20242;-72
2023/12/01 05:06:29;;;;;;;8.30;6.53;;;;;;;-1.30;100.00;100601.59;6175034;28;20234;-73
2023/12/01 05:09:52;;;;;;;10.67;8.00;;;;;;;-1.15;100.00;100597.38;6173697;28;20234;-73
2023/12/01 05:13:14;;;;;;;12.20;10.20;;;;;;;-1.10;100.00;100596.25;6177325;28;20226;-73
2023/12/01 05:16:35;;;;;;;16.57;14.77;;;;;;;-1.14;100.00;100610.53;6175864;28;20568;-72
2023/12/01 05:19:57;;;;;;;18.17;15.20;;;;;;;-1.22;100.00;100603.88;6176536;28;20238;-72
2023/12/01 05:23:17;;;;;;;19.53;17.33;;;;;;;-1.25;100.00;100604.84;6176346;28;20234;-72
2023/12/01 05:26:39;;;;;;;16.17;12.33;;;;;;;-1.24;100.00;100606.59;6175933;28;20238;-72
2023/12/01 05:30:01;;;;;;;10.93;9.67;;;;;;;-1.18;100.00;100600.16;6176882;28;20309;-72
2023/12/01 05:33:22;;;;;;;15.60;14.00;;;;;;;-1.22;100.00;100612.66;6177359;28;20230;-73
2023/12/01 05:36:43;;;;;;;13.53;11.50;;;;;;;-1.28;100.00;100602.38;6174445;28;20514;-73
2023/12/01 05:40:05;;;;;;;9.77;8.33;;;;;;;-1.27;100.00;100606.72;6176807;28;20241;-72
2023/12/01 05:43:29;;;;;;;10.60;8.37;;;;;;;-1.26;100.00;100611.09;6174075;28;20233;-72
2023/12/01 05:46:50;;;;;;;10.87;9.60;;;;;;;-1.24;100.00;100613.66;6173339;28;20671;-72
2023/12/01 05:50:16;;;;;;;14.70;11.60;;;;;;;-1.18;100.00;100627.47;6176265;28;21490;-72
2023/12/01 05:53:37;;;;;;;11.07;9.00;;;;;;;-1.14;100.00;100633.47;6160256;28;20238;-72
2023/12/01 05:56:58;;;;;;;10.43;8.33;;;;;;;-1.10;100.00;100630.63;6169504;28;20246;-72
2023/12/01 06:00:26;;;;;;;12.33;8.30;;;;;;;-1.16;100.00;100633.53;6167146;28;20237;-72
2023/12/01 06:03:48;;;;;;;9.80;7.90;;;;;;;-1.10;100.00;100627.97;6174291;28;20237;-72
2023/12/01 06:07:08;;;;;;;9.63;8.63;;;;;;;-1.04;100.00;100629.47;6174644;28;20226;-73
2023/12/01 06:10:31;;;;;;;10.80;9.53;;;;;;;-1.12;100.00;100632.47;6173945;28;20238;-72
2023/12/01 06:13:52;;;;;;;10.97;9.30;;;;;;;-1.08;100.00;100638.47;6163054;28;20230;-73
2023/12/01 06:17:14;;;;;;;11.70;8.60;;;;;;;-1.12;100.00;100636.91;6173893;28;20253;-73
2023/12/01 06:20:37;;;;;;;11.97;10.13;;;;;;;-1.04;100.00;100626.81;6173832;28;21893;-72
2023/12/01 06:23:58;;;;;;;13.70;10.37;;;;;;;-1.06;100.00;100634.84;6175391;28;20234;-72
2023/12/01 06:27:19;;;;;;;13.07;8.37;;;;;;;-1.09;100.00;100637.63;6172314;28;20332;-72
2023/12/01 06:30:40;;;;;;;14.97;10.30;;;;;;;-1.17;100.00;100638.91;6170832;28;20238;-73
2023/12/01 06:34:02;;;;;;;15.90;9.93;;;;;;;-1.15;100.00;100643.19;6176331;28;20251;-72
2023/12/01 06:37:23;;;;;;;14.33;11.17;;;;;;;-1.14;100.00;100644.91;6173581;28;20506;-72
2023/12/01 06:40:44;;;;;;;16.73;12.67;;;;;;;-1.20;100.00;100655.75;6161144;28;21355;-72
2023/12/01 06:44:05;;;;;;;12.87;10.97;;;;;;;-1.26;100.00;100652.53;6152734;28;20242;-73
2023/12/01 06:47:26;;;;;;;14.37;10.87;;;;;;;-1.24;100.00;100662.13;6163400;28;20816;-73
2023/12/01 06:50:48;;;;;;;11.73;9.00;;;;;;;-1.30;100.00;100664.16;6168493;28;20234;-73
2023/12/01 06:54:09;;;;;;;17.17;11.40;;;;;;;-1.66;100.00;100666.59;6168770;28;20241;-73
2023/12/01 06:57:31;;;;;;;13.00;9.53;;;;;;;-1.64;100.00;100668.25;6171363;28;20816;-72
2023/12/01 07:00:56;;;;;;;14.77;10.07;;;;;;;-1.51;100.00;100673.88;6167155;28;20226;-72
2023/12/01 07:04:17;;;;;;;12.60;10.17;;;;;;;-1.27;100.00;100674.63;6141163;28;20244;-72
2023/12/01 07:07:39;;;;;;;10.60;9.30;;;;;;;-1.26;100.00;100676.31;6162650;28;20233;-72
2023/12/01 07:11:00;;;;;;;11.90;8.73;;;;;;;-1.24;100.00;100677.09;6168284;28;20238;-72
2023/12/01 07:14:23;;;;;;;15.73;10.23;;;;;;;-1.28;100.00;100688.75;6164075;28;20241;-72
2023/12/01 07:17:44;;;;;;;14.40;10.43;;;;;;;-1.26;100.00;100690.41;6160442;28;22075;-72
2023/12/01 07:21:06;;;;;;;13.73;10.27;;;;;;;-1.24;100.00;100696.47;6164969;28;20233;-72
2023/12/01 07:24:28;;;;;;;16.03;11.73;;;;;;;-1.32;100.00;100697.75;6174018;28;20239;-70
2023/12/01 07:27:50;;;;;;;14.40;12.00;;;;;;;-1.35;100.00;100703.13;6162474;28;20245;-69
2023/12/01 07:31:11;;;;;;;12.00;9.47;;;;;;;-1.29;100.00;100708.16;6162007;28;21151;-70
2023/12/01 07:34:32;;;;;;;13.53;11.27;;;;;;;-1.25;100.00;100717.72;6175454;28;20245;-70
2023/12/01 07:37:54;;;;;;;12.17;10.33;;;;;;;-1.20;100.00;100719.22;6170930;28;20632;-71
2023/12/01 07:41:16;;;;;;;11.90;9.77;;;;;;;-1.23;100.00;100723.78;6175613;28;20600;-71
2023/12/01 07:44:37;;;;;;;15.10;11.97;;;;;;;-1.19;100.00;100726.22;6174082;28;20663;-73
2023/12/01 07:47:59;;;;;;;12.23;10.10;;;;;;;-1.22;100.00;100730.78;6173239;28;20659;-71
2023/12/01 07:51:20;;;;;;;11.70;8.93;;;;;;;-1.21;100.00;100729.88;6180769;28;20808;-71
2023/12/01 07:54:41;;;;;;;14.47;10.77;;;;;;;-1.25;100.00;100729.13;6179071;28;20249;-71
2023/12/01 07:58:03;;;;;;;15.07;11.13;;;;;;;-1.63;100.00;100741.31;6177779;28;20604;-72
2023/12/01 08:01:24;;;;;;;16.43;11.50;;;;;;;-1.41;100.00;100735.13;6183100;28;20660;-71
2023/12/01 08:04:45;;;;;;;14.43;9.93;;;;;;;0.07;100.00;100734.50;6167918;28;20230;-70
2023/12/01 08:08:06;;;;;;;15.27;11.27;;;;;;;-0.24;100.00;100732.47;6179458;28;20230;-73
2023/12/01 08:11:30;;;;;;;15.73;10.77;;;;;;;-0.66;100.00;100733.56;6178957;28;20237;-73
2023/12/01 08:14:52;;;;;;;15.53;11.07;;;;;;;-1.31;100.00;100737.31;6177509;28;20234;-72
2023/12/01 08:18:13;;;;;;;12.80;9.13;;;;;;;-1.47;100.00;100745.97;6163879;28;20237;-72
2023/12/01 08:21:35;;;;;;;14.93;10.40;;;;;;;-1.44;100.00;100743.19;6179802;28;20508;-72
2023/12/01 08:24:57;;;;;;;12.80;9.03;;;;;;;-1.49;100.00;100763.66;6176819;28;20234;-74
2023/12/01 08:28:18;;;;;;;16.60;10.27;;;;;;;-1.36;100.00;100763.09;6153421;28;20328;-71
2023/12/01 08:31:40;;;;;;;13.30;10.30;;;;;;;-1.15;100.00;100772.75;6174029;28;21049;-74
2023/12/01 08:35:01;;;;;;;15.50;11.43;;;;;;;-1.03;100.00;100769.59;6173340;28;20614;-74
2023/12/01 08:38:22;;;;;;;14.50;10.30;;;;;;;-0.94;100.00;100774.47;6170801;28;20233;-78
2023/12/01 08:41:43;;;;;;;12.00;9.73;;;;;;;-0.91;100.00;100771.69;6178718;28;20233;-74
2023/12/01 08:45:05;;;;;;;16.70;12.87;;;;;;;-0.80;100.00;100787.09;6173635;28;20230;-75
2023/12/01 08:48:27;;;;;;;13.00;10.87;;;;;;;-0.77;100.00;100794.06;6158584;28;20515;-75
2023/12/01 08:51:48;;;;;;;13.93;10.83;;;;;;;-0.83;100.00;100787.22;6167136;28;20238;-75
2023/12/01 08:55:10;;;;;;;15.13;10.23;;;;;;;-0.47;100.00;100796.19;6173838;28;20233;-76
2023/12/01 08:58:31;;;;;;;14.50;11.50;;;;;;;-0.56;100.00;100793.94;6154755;28;20237;-73
2023/12/01 09:01:52;;;;;;;12.60;10.40;;;;;;;-0.44;100.00;100788.09;6153934;28;20226;-75
2023/12/01 09:05:17;;;;;;;14.60;11.23;;;;;;;-0.19;100.00;100786.06;6171377;28;20230;-74
2023/12/01 09:08:38;;;;;;;14.63;10.53;;;;;;;0.20;100.00;100790.41;6170718;28;20249;-73
2023/12/01 09:11:58;;;;;;;13.07;10.80;;;;;;;0.73;100.00;100781.56;6151719;28;20234;-72
2023/12/01 09:15:19;;;;;;;14.40;11.43;;;;;;;1.13;100.00;100783.03;6154859;28;20226;-72
2023/12/01 09:18:41;;;;;;;14.70;10.23;;;;;;;3.43;100.00;100783.22;6158343;28;20233;-73
2023/12/01 09:22:04;;;;;;;11.67;10.33;;;;;;;4.78;100.00;100766.44;6155289;28;20225;-73
2023/12/01 09:25:24;;;;;;;14.20;12.40;;;;;;;7.48;100.00;100767.22;6141110;28;20332;-73
2023/12/01 09:28:49;;;;;;;12.33;11.03;;;;;;;9.51;91.82;100768.22;6161262;28;20234;-73
2023/12/01 09:32:09;;;;;;;10.50;9.20;;;;;;;10.83;78.83;100770.72;6148441;28;20234;-72
2023/12/01 09:35:30;;;;;;;10.40;9.33;;;;;;;11.79;70.02;100765.25;6161061;28;20253;-73
2023/12/01 09:38:53;;;;;;;13.13;10.60;;;;;;;12.02;65.03;100764.78;6152069;28;20230;-75
2023/12/01 09:42:15;;;;;;;10.60;9.23;;;;;;;10.32;66.51;100761.97;6153550;28;20234;-75
2023/12/01 09:45:35;;;;;;;11.67;9.23;;;;;;;10.44;65.99;100763.56;6157708;28;20261;-74
2023/12/01 09:48:58;;;;;;;11.83;10.27;;;;;;;10.47;67.10;100771.41;6147282;28;20222;-73
2023/12/01 09:52:19;;;;;;;11.50;9.20;;;;;;;11.90;61.58;100765.97;6167090;28;21308;-73
2023/12/01 09:55:41;;;;;;;10.43;9.43;;;;;;;12.42;57.97;100764.44;6156384;28;20658;-74
2023/12/01 09:59:05;;;;;;;12.00;10.80;;;;;;;13.85;48.75;100767.81;6167602;28;20229;-75
2023/12/01 10:02:25;;;;;;;13.38;11.43;;;;;;;11.80;52.59;100772.38;6174325;28;20241;-74
2023/12/01 10:05:46;;;;;;;12.75;11.15;;;;;;;13.02;48.26;100767.44;6156570;28;20253;-74
2023/12/01 10:09:10;;;;;;;11.23;9.07;;;;;;;13.47;45.39;100766.38;6159004;28;20233;-74
2023/12/01 10:12:32;;;;;;;11.88;10.52;;;;;;;14.00;42.98;100763.50;6165600;28;21424;-74
2023/12/01 10:15:58;;;;;;;13.13;11.15;;;;;;;14.30;42.10;100762.16;6157046;28;20667;-73
2023/12/01 10:19:19;;;;;;;12.07;9.02;;;;;;;14.63;40.92;100773.97;6147583;28;20773;-74
2023/12/01 10:22:41;;;;;;;12.60;9.70;;;;;;;15.25;38.78;100776.13;6168865;28;20810;-74
2023/12/01 10:26:03;;;;;;;11.55;9.50;;;;;;;14.88;39.07;100778.47;6167768;28;21454;-74
2023/12/01 10:29:30;;;;;;;13.20;10.15;;;;;;;15.00;39.00;100771.69;6168168;28;20364;-74
2023/12/01 10:32:51;;;;;;;10.88;9.30;;;;;;;14.97;39.17;100761.19;6172719;28;20356;-74
2023/12/01 10:36:12;;;;;;;11.52;9.55;;;;;;;15.00;38.73;100764.41;6157011;28;20249;-74
2023/12/01 10:39:33;;;;;;;11.20;9.43;;;;;;;15.10;38.42;100761.56;6172878;28;20242;-74
2023/12/01 10:42:55;;;;;;;10.70;9.32;;;;;;;15.29;38.12;100761.19;6175206;28;20312;-74
2023/12/01 10:46:19;;;;;;;10.65;8.88;;;;;;;16.11;37.46;100758.25;6165982;28;20273;-75
2023/12/01 10:49:44;;;;;;;10.10;9.13;;;;;;;16.33;36.82;100753.94;6171936;28;21216;-74
2023/12/01 10:53:07;;;;;;;10.25;9.18;;;;;;;16.68;35.61;100753.44;6170301;28;20352;-74
2023/12/01 10:56:30;;;;;;;9.85;8.55;;;;;;;16.37;35.68;100752.56;6179343;28;20234;-73
2023/12/01 10:59:53;;;;;;;9.45;8.23;;;;;;;15.77;36.35;100753.06;6170486;28;20637;-74
2023/12/01 11:03:19;;;;;;;10.32;8.27;;;;;;;15.88;36.21;100754.56;6169977;28;20600;-83
2023/12/01 11:06:51;;;;;;;7.07;6.40;;;;;;;16.31;36.69;100748.66;6168262;28;20254;-79
2023/12/01 11:10:25;;;;;;;8.80;7.47;;;;;;;16.62;36.20;100743.28;6166894;28;20620;-77
2023/12/01 11:13:58;;;;;;;9.10;8.20;;;;;;;15.71;36.36;100742.03;6172396;28;20253;-76
2023/12/01 11:17:20;;;;;;;8.93;7.70;;;;;;;15.83;36.58;100746.91;6166562;28;20664;-76
2023/12/01 11:20:44;;;;;;;8.10;6.85;;;;;;;16.86;35.07;100745.84;6150799;28;20242;-76
2023/12/01 11:24:25;;;;;;;7.95;6.50;;;;;;;16.75;34.74;100751.72;6172460;28;21412;-77
2023/12/01 11:27:46;;;;;;;7.88;7.18;;;;;;;15.96;35.30;100739.09;6165843;28;20701;-73
2023/12/01 11:31:09;;;;;;;6.95;6.28;;;;;;;16.27;35.64;100741.84;6163055;28;20324;-74
2023/12/01 11:34:30;;;;;;;8.15;7.35;;;;;;;16.52;35.14;100742.66;6164264;28;20237;-74
2023/12/01 11:38:03;;;;;;;6.82;6.13;;;;;;;17.51;34.39;100736.19;6162310;28;20596;-74
2023/12/01 11:41:24;;;;;;;7.53;6.80;;;;;;;17.96;33.73;100734.38;6163369;28;20659;-74
2023/12/01 11:44:51;;;;;;;13.40;11.15;;;;;;;18.61;32.96;100734.47;6165131;28;20226;-75
2023/12/01 11:48:12;;;;;;;9.15;7.95;;;;;;;17.52;32.87;100739.78;6165148;28;20253;-75
2023/12/01 11:51:33;;;;;;;7.43;6.65;;;;;;;15.73;35.14;100739.97;6163813;28;20237;-75
2023/12/01 11:54:56;;;;;;;7.07;6.38;;;;;;;16.76;34.24;100742.50;6165597;28;20234;-74
2023/12/01 11:58:18;;;;;;;5.70;4.75;;;;;;;17.20;33.90;100745.44;6163249;28;20233;-74
2023/12/01 12:01:39;;;;;;;6.10;5.50;;;;;;;17.60;33.48;100736.09;6178285;28;20257;-74
2023/12/01 12:05:05;;;;;;;5.10;4.47;;;;;;;16.61;35.53;100734.25;6180375;28;20624;-74
2023/12/01 12:08:26;;;;;;;5.97;5.38;;;;;;;14.92;36.77;100739.09;6178920;28;20234;-74
2023/12/01 12:11:52;;;;;;;6.82;5.20;;;;;;;15.16;38.22;100733.72;6178983;28;20234;-73
2023/12/01 12:15:14;;;;;;;5.72;4.32;;;;;;;15.62;37.72;100727.63;6179187;28;20241;-73
2023/12/01 12:18:35;;;;;;;5.93;4.68;;;;;;;14.94;37.37;100728.94;6163498;28;20253;-74
2023/12/01 12:21:56;;;;;;;6.82;4.53;;;;;;;14.05;39.85;100727.78;6178849;28;20238;-74
2023/12/01 12:25:17;;;;;;;4.68;3.97;;;;;;;12.39;42.52;100726.88;6176982;28;20256;-73
2023/12/01 12:28:42;;;;;;;4.67;4.27;;;;;;;12.53;43.00;100734.50;6175546;28;20234;-72
2023/12/01 12:32:03;;;;;;;5.80;5.07;;;;;;;12.15;43.80;100733.84;6177569;28;20530;-73
2023/12/01 12:35:24;;;;;;;5.10;4.60;;;;;;;11.10;46.17;100738.50;6181496;28;20237;-73
2023/12/01 12:38:48;;;;;;;5.13;4.27;;;;;;;10.75;48.90;100737.38;6182773;28;20241;-73
2023/12/01 12:42:16;;;;;;;6.93;4.83;;;;;;;10.39;49.96;100739.72;6181318;28;20611;-73
2023/12/01 12:45:38;;;;;;;5.97;4.60;;;;;;;10.36;50.28;100741.84;6180736;28;21120;-74
2023/12/01 12:49:01;;;;;;;5.67;5.03;;;;;;;11.07;48.52;100738.81;6181984;28;20234;-73
2023/12/01 12:52:22;;;;;;;3.87;3.57;;;;;;;11.81;46.21;100736.25;6182357;28;20269;-73
2023/12/01 12:55:43;;;;;;;5.73;3.93;;;;;;;11.50;46.31;100726.66;6180758;28;20631;-74
2023/12/01 12:59:05;;;;;;;5.37;4.13;;;;;;;11.77;46.73;100732.16;6183017;28;20242;-74
2023/12/01 13:02:27;;;;;;;5.03;4.53;;;;;;;10.53;48.99;100740.31;6171388;28;20596;-74
2023/12/01 13:05:48;;;;;;;4.30;3.90;;;;;;;9.92;51.69;100739.53;6183076;28;20670;-73
2023/12/01 13:09:09;;;;;;;4.87;4.27;;;;;;;8.96;56.69;100738.94;6183108;28;20789;-74
2023/12/01 13:12:30;;;;;;;3.53;3.07;;;;;;;7.22;65.28;100746.91;6173588;28;21044;-74
2023/12/01 13:15:51;;;;;;;5.43;4.93;;;;;;;6.66;71.07;100739.63;6162516;28;20270;-73
2023/12/01 13:19:16;;;;;;;5.50;4.40;;;;;;;5.95;77.75;100742.22;6177072;28;20237;-73
2023/12/01 13:22:37;;;;;;;5.30;4.80;;;;;;;5.79;81.70;100744.28;6179238;28;20344;-74
2023/12/01 13:25:58;;;;;;;4.97;4.40;;;;;;;5.40;85.62;100739.94;6180755;28;20277;-74
2023/12/01 13:29:19;;;;;;;5.10;4.60;;;;;;;5.38;86.53;100739.19;6177059;28;20234;-74
2023/12/01 13:32:40;;;;;;;6.17;5.27;;;;;;;5.61;86.83;100744.59;6180119;28;20249;-74
2023/12/01 13:36:02;;;;;;;5.70;5.10;;;;;;;5.32;89.11;100742.28;6180295;28;20242;-74
2023/12/01 13:39:25;;;;;;;5.47;4.53;;;;;;;5.25;91.06;100740.97;6179613;28;20214;-75
2023/12/01 13:42:46;;;;;;;4.53;4.13;;;;;;;4.87;95.52;100740.94;6179956;28;20238;-74
2023/12/01 13:46:07;;;;;;;6.10;5.50;;;;;;;4.76;96.81;100746.13;6435015;23;20238;-74
2023/12/01 13:49:29;;;;;;;7.53;5.83;;;;;;;4.63;100.00;100738.06;6157090;28;20230;-73
2023/12/01 13:52:52;;;;;;;7.40;6.13;;;;;;;4.45;100.00;100743.78;6147519;28;20239;-74
2023/12/01 13:56:13;;;;;;;4.80;4.30;;;;;;;4.38;100.00;100742.47;6155247;28;20520;-73
2023/12/01 13:59:34;;;;;;;9.93;7.10;;;;;;;4.28;100.00;100750.22;6156846;28;20357;-73
2023/12/01 14:02:55;;;;;;;6.30;5.67;;;;;;;4.21;100.00;100761.38;6151410;28;20243;-73
2023/12/01 14:06:16;;;;;;;6.83;6.23;;;;;;;4.17;100.00;100758.06;6142776;28;20238;-73
2023/12/01 14:09:39;;;;;;;6.00;5.37;;;;;;;4.03;100.00;100760.75;6146605;28;20266;-74
2023/12/01 14:13:00;;;;;;;6.70;6.00;;;;;;;3.87;100.00;100768.88;6149646;28;20234;-75
2023/12/01 14:16:21;;;;;;;5.10;4.60;;;;;;;3.66;100.00;100769.34;6149625;28;20231;-74
2023/12/01 14:19:42;;;;;;;9.23;5.57;;;;;;;3.60;100.00;100765.25;6151482;28;20226;-74
2023/12/01 14:23:03;;;;;;;6.07;3.93;;;;;;;3.43;100.00;100767.25;6151864;28;20234;-74
2023/12/01 14:26:25;;;;;;;5.47;4.97;;;;;;;3.31;100.00;100770.66;6152820;28;20230;-74
2023/12/01 14:29:46;;;;;;;6.50;5.10;;;;;;;3.39;100.00;100776.38;6150013;28;20667;-74
2023/12/01 14:33:07;;;;;;;5.17;4.67;;;;;;;2.97;100.00;100777.13;6155085;28;20234;-73
2023/12/01 14:36:28;;;;;;;4.47;4.07;;;;;;;3.28;100.00;100770.81;6153452;28;20262;-73
2023/12/01 14:39:49;;;;;;;6.07;5.47;;;;;;;2.97;100.00;100770.03;6141954;28;20230;-73
2023/12/01 14:43:11;;;;;;;6.63;5.87;;;;;;;3.12;100.00;100774.44;6155189;28;20234;-73
2023/12/01 14:46:31;;;;;;;8.93;5.57;;;;;;;2.84;100.00;100762.84;6153812;28;20235;-73
2023/12/01 14:49:52;;;;;;;6.53;5.57;;;;;;;2.92;100.00;100769.41;6145745;28;20235;-73
2023/12/01 14:53:13;;;;;;;7.53;6.20;;;;;;;2.80;100.00;100766.63;6157096;28;20238;-73
2023/12/01 14:56:35;;;;;;;5.97;5.23;;;;;;;2.73;100.00;100765.28;6155886;28;20250;-74
2023/12/01 14:59:57;;;;;;;5.47;4.97;;;;;;;2.43;100.00;100775.88;6153345;28;20235;-74
2023/12/01 15:03:18;;;;;;;5.33;4.93;;;;;;;2.44;100.00;100764.31;6157385;28;20226;-74
2023/12/01 15:06:39;;;;;;;5.23;4.40;;;;;;;2.47;100.00;100766.78;6156431;28;20290;-74
2023/12/01 15:10:00;;;;;;;7.20;4.93;;;;;;;2.37;100.00;100771.78;6155516;28;20235;-73
2023/12/01 15:13:21;;;;;;;7.87;4.90;;;;;;;2.36;100.00;100762.06;6156351;28;20230;-73
2023/12/01 15:16:43;;;;;;;8.50;7.10;;;;;;;2.35;100.00;100765.69;6137300;28;20661;-73
2023/12/01 15:20:06;;;;;;;5.27;4.77;;;;;;;2.53;100.00;100763.78;6150189;28;20231;-73
2023/12/01 15:23:26;;;;;;;6.03;5.53;;;;;;;2.35;100.00;100762.16;6152097;28;20880;-74